Time;durP1;ratioP1;P1;durP2;ratioP2;P2;SDS_P1;SDS_P2;PMS_P1;PMS_P2;Temp;Humidity;BMP_temperature;BMP_pressure;BME280_temperature;BME280_humidity;BME280_pressure;Samples;Min_cycle;Max_cycle;Signal;HPM_P1;HPM_P2
2023/06/27 00:02:05;;;;;;;4.60;2.03;;;19.60;74.30;;;;;;5131476;27;20418;-69
2023/06/27 00:04:31;;;;;;;3.87;2.20;;;19.60;78.20;;;;;;5150242;27;20176;-69
2023/06/27 00:06:57;;;;;;;5.10;2.07;;;19.60;74.70;;;;;;5150302;27;20180;-69
2023/06/27 00:09:22;;;;;;;7.93;2.97;;;19.60;75.10;;;;;;5131911;27;20238;-69
2023/06/27 00:11:48;;;;;;;7.93;2.03;;;19.60;75.60;;;;;;5150638;27;20661;-68
2023/06/27 00:14:14;;;;;;;4.90;2.17;;;19.60;75.70;;;;;;5150749;27;20176;-68
2023/06/27 00:16:40;;;;;;;6.23;2.00;;;19.60;76.00;;;;;;5150542;27;20605;-68
2023/06/27 00:19:06;;;;;;;3.00;1.60;;;19.60;76.40;;;;;;5150799;27;20196;-69
2023/06/27 00:21:32;;;;;;;6.10;2.40;;;19.60;75.70;;;;;;5132313;27;20486;-69
2023/06/27 00:23:59;;;;;;;7.30;2.50;;;19.50;76.90;;;;;;5132127;27;20177;-69
2023/06/27 00:26:25;;;;;;;4.33;1.60;;;19.50;77.00;;;;;;5131849;27;20506;-69
2023/06/27 00:28:50;;;;;;;3.67;1.90;;;19.50;76.30;;;;;;5150443;27;20409;-69
2023/06/27 00:31:16;;;;;;;7.30;2.40;;;19.50;77.20;;;;;;5149936;27;20432;-68
2023/06/27 00:33:41;;;;;;;11.20;2.53;;;19.60;76.60;;;;;;5149951;27;20731;-68
2023/06/27 00:36:07;;;;;;;4.63;2.17;;;19.60;77.10;;;;;;5149896;27;20188;-68
2023/06/27 00:38:33;;;;;;;6.37;1.83;;;19.50;76.80;;;;;;5149698;27;20244;-69
2023/06/27 00:40:59;;;;;;;6.23;1.87;;;19.60;77.00;;;;;;5149927;27;20200;-69
2023/06/27 00:43:27;;;;;;;7.50;2.60;;;19.50;76.70;;;;;;5150035;27;20402;-69
2023/06/27 00:45:53;;;;;;;6.07;1.63;;;19.50;76.00;;;;;;5150244;27;20413;-70
2023/06/27 00:48:19;;;;;;;9.20;2.63;;;19.50;77.20;;;;;;5150195;27;20409;-69
2023/06/27 00:50:45;;;;;;;12.00;1.80;;;19.50;77.80;;;;;;5150119;27;20776;-69
2023/06/27 00:53:12;;;;;;;3.60;1.70;;;19.40;77.60;;;;;;5152768;27;20231;-69
2023/06/27 00:55:39;;;;;;;5.33;2.47;;;19.40;78.10;;;;;;5134790;27;20418;-69
2023/06/27 00:58:06;;;;;;;7.47;2.33;;;19.40;77.90;;;;;;5117734;27;20476;-69
2023/06/27 01:00:31;;;;;;;6.60;2.07;;;19.40;79.10;;;;;;5153319;27;20472;-69
2023/06/27 01:02:57;;;;;;;9.93;2.57;;;19.40;78.70;;;;;;5153485;27;20455;-69
2023/06/27 01:05:24;;;;;;;3.90;2.57;;;19.40;78.50;;;;;;5153318;27;20280;-69
2023/06/27 01:08:08;;;;;;;6.87;2.20;;;19.30;78.60;;;;;;5153392;27;20173;-69
2023/06/27 01:10:48;;;;;;;5.83;2.03;;;19.30;80.40;;;;;;5153408;27;20434;-69
2023/06/27 01:13:17;;;;;;;11.13;2.30;;;19.20;80.50;;;;;;5153327;27;20413;-69
2023/06/27 01:15:44;;;;;;;4.00;1.70;;;19.20;80.10;;;;;;5153210;27;20439;-70
2023/06/27 01:18:11;;;;;;;5.80;1.97;;;19.20;80.80;;;;;;5134391;27;20476;-69
2023/06/27 01:20:38;;;;;;;5.20;2.37;;;19.20;80.70;;;;;;5153251;27;20455;-69
2023/06/27 01:23:24;;;;;;;5.60;2.27;;;19.10;81.70;;;;;;5134341;27;20526;-69
2023/06/27 01:25:53;;;;;;;5.93;1.60;;;19.10;82.30;;;;;;5153040;27;21060;-69
2023/06/27 01:28:18;;;;;;;6.20;2.30;;;19.10;83.00;;;;;;5152930;27;20448;-69
2023/06/27 01:30:44;;;;;;;6.27;2.27;;;19.00;83.70;;;;;;5153043;27;20425;-69
2023/06/27 01:33:18;;;;;;;9.03;1.93;;;19.00;85.50;;;;;;5134574;27;20602;-69
2023/06/27 01:36:15;;;;;;;5.73;2.10;;;19.00;84.50;;;;;;5152849;27;20684;-69
2023/06/27 01:38:48;;;;;;;3.53;1.80;;;19.00;84.90;;;;;;5151954;27;20493;-69
2023/06/27 01:41:18;;;;;;;4.70;2.00;;;19.00;84.80;;;;;;5152798;27;20502;-69
2023/06/27 01:43:44;;;;;;;6.27;1.93;;;19.00;84.80;;;;;;5152857;27;20410;-69
2023/06/27 01:46:11;;;;;;;7.43;2.47;;;19.00;85.10;;;;;;5152634;27;20414;-69
2023/06/27 01:48:38;;;;;;;3.57;1.93;;;19.00;85.80;;;;;;5133901;27;20422;-69
2023/06/27 01:51:08;;;;;;;5.47;2.20;;;19.10;84.80;;;;;;5152326;27;20448;-69
2023/06/27 01:53:34;;;;;;;9.43;2.27;;;19.00;88.00;;;;;;5116459;27;20425;-69
2023/06/27 01:55:59;;;;;;;3.90;1.90;;;19.10;86.40;;;;;;5152446;27;20991;-69
2023/06/27 01:58:25;;;;;;;4.37;1.87;;;19.10;88.90;;;;;;5152333;27;20461;-69
2023/06/27 02:00:51;;;;;;;6.23;1.87;;;19.10;90.70;;;;;;5152394;27;20859;-69
2023/06/27 02:03:17;;;;;;;12.50;2.47;;;19.00;85.70;;;;;;5152392;27;20241;-69
2023/06/27 02:05:43;;;;;;;4.30;2.17;;;19.10;86.40;;;;;;5133848;27;20422;-69
2023/06/27 02:08:08;;;;;;;16.13;4.10;;;19.10;87.40;;;;;;5152167;27;20187;-69
2023/06/27 02:10:34;;;;;;;4.73;2.10;;;19.00;87.40;;;;;;5152103;27;20552;-69
2023/06/27 02:13:01;;;;;;;5.80;2.00;;;19.00;88.50;;;;;;5152269;27;20183;-69
2023/06/27 02:15:27;;;;;;;10.40;2.87;;;19.00;87.50;;;;;;5152088;27;20209;-69
2023/06/27 02:17:52;;;;;;;4.00;2.23;;;18.90;88.50;;;;;;5133415;27;20464;-69
2023/06/27 02:20:18;;;;;;;13.60;2.00;;;18.90;87.90;;;;;;5133269;27;20221;-68
2023/06/27 02:22:43;;;;;;;4.50;2.00;;;18.80;88.10;;;;;;5133382;27;20555;-69
2023/06/27 02:25:09;;;;;;;4.17;1.93;;;18.80;88.00;;;;;;5151872;27;20727;-69
2023/06/27 02:27:35;;;;;;;3.40;2.00;;;18.80;90.30;;;;;;5151814;27;20204;-69
2023/06/27 02:30:00;;;;;;;5.47;2.10;;;18.80;88.90;;;;;;5151773;27;20200;-69
2023/06/27 02:32:26;;;;;;;6.03;2.27;;;18.80;88.30;;;;;;5133346;27;20187;-69
2023/06/27 02:34:51;;;;;;;12.00;2.00;;;18.80;90.50;;;;;;5133159;27;20199;-68
2023/06/27 02:37:17;;;;;;;4.23;1.70;;;18.80;91.00;;;;;;5152040;27;20969;-68
2023/06/27 02:39:43;;;;;;;5.10;2.03;;;18.80;90.90;;;;;;5133583;27;20203;-69
2023/06/27 02:42:08;;;;;;;7.37;2.00;;;18.80;90.70;;;;;;5133628;27;20209;-68
2023/06/27 02:44:34;;;;;;;4.03;2.23;;;18.80;91.50;;;;;;5152262;27;20693;-68
2023/06/27 02:46:59;;;;;;;7.33;2.37;;;18.80;91.20;;;;;;5152210;27;20232;-69
2023/06/27 02:49:25;;;;;;;5.60;2.13;;;18.80;91.40;;;;;;5152364;27;20196;-69
2023/06/27 02:51:50;;;;;;;9.57;3.00;;;18.80;91.90;;;;;;5133110;27;20581;-68
2023/06/27 02:54:16;;;;;;;5.73;1.77;;;18.70;92.70;;;;;;5151482;27;20265;-69
2023/06/27 02:56:42;;;;;;;4.70;2.07;;;18.70;93.00;;;;;;5151374;27;20184;-68
2023/06/27 02:59:08;;;;;;;2.83;1.93;;;18.60;93.00;;;;;;5151478;27;20963;-65
2023/06/27 03:01:33;;;;;;;4.20;2.20;;;18.60;94.10;;;;;;5151918;27;20668;-65
2023/06/27 03:03:59;;;;;;;4.20;1.80;;;18.40;94.00;;;;;;5151572;27;20449;-65
2023/06/27 03:06:25;;;;;;;9.80;1.90;;;18.40;95.20;;;;;;5151275;27;20558;-65
2023/06/27 03:08:50;;;;;;;4.90;2.10;;;18.30;95.20;;;;;;5151459;27;20255;-64
2023/06/27 03:11:16;;;;;;;7.33;2.00;;;18.20;95.70;;;;;;5151490;27;20888;-65
2023/06/27 03:13:41;;;;;;;5.20;1.80;;;18.30;96.10;;;;;;5151390;27;20269;-65
2023/06/27 03:16:07;;;;;;;3.83;1.87;;;18.30;96.30;;;;;;5150859;27;20225;-65
2023/06/27 03:18:33;;;;;;;4.47;2.27;;;18.20;96.70;;;;;;5151414;27;20276;-65
2023/06/27 03:20:58;;;;;;;4.20;2.43;;;18.20;96.50;;;;;;5151323;27;20196;-65
2023/06/27 03:23:24;;;;;;;5.00;2.10;;;18.20;97.70;;;;;;5151632;27;20183;-65
2023/06/27 03:25:49;;;;;;;8.40;2.23;;;18.10;98.40;;;;;;5151504;27;20188;-65
2023/06/27 03:28:15;;;;;;;5.53;2.70;;;18.10;99.40;;;;;;5151349;27;20256;-65
2023/06/27 03:30:43;;;;;;;3.70;2.00;;;18.10;99.90;;;;;;5151275;27;20205;-64
2023/06/27 03:33:10;;;;;;;11.80;2.50;;;18.00;99.20;;;;;;5151393;27;20529;-65
2023/06/27 03:35:35;;;;;;;4.67;2.43;;;17.90;99.90;;;;;;5151345;27;20420;-65
2023/06/27 03:38:02;;;;;;;7.23;2.00;;;17.60;99.90;;;;;;5151134;27;20497;-65
2023/06/27 03:40:28;;;;;;;9.40;2.30;;;17.60;99.90;;;;;;5151234;27;20203;-65
2023/06/27 03:42:55;;;;;;;6.13;1.70;;;17.60;99.90;;;;;;5151185;27;20414;-65
2023/06/27 03:45:21;;;;;;;6.47;2.60;;;17.50;99.90;;;;;;5150936;27;20326;-63
2023/06/27 03:47:47;;;;;;;6.30;2.10;;;17.70;99.90;;;;;;5150961;27;20422;-65
2023/06/27 03:50:13;;;;;;;7.20;1.90;;;17.80;99.90;;;;;;5150718;27;20447;-64
2023/06/27 03:52:38;;;;;;;3.20;1.93;;;17.90;99.90;;;;;;5150347;27;20196;-65
2023/06/27 03:55:05;;;;;;;10.03;2.20;;;18.00;99.90;;;;;;5150348;27;20563;-65
2023/06/27 03:57:31;;;;;;;6.80;2.50;;;18.00;99.90;;;;;;5150148;27;20208;-65
2023/06/27 03:59:56;;;;;;;5.20;2.13;;;18.00;99.90;;;;;;5150274;27;20436;-66
2023/06/27 04:02:22;;;;;;;7.87;2.70;;;18.00;99.90;;;;;;5150136;27;20212;-64
2023/06/27 04:04:47;;;;;;;8.67;2.57;;;18.00;99.90;;;;;;5150050;27;20179;-65
2023/06/27 04:07:14;;;;;;;4.00;2.20;;;18.10;99.90;;;;;;5149978;27;20648;-64
2023/06/27 04:09:40;;;;;;;7.70;2.70;;;18.10;99.90;;;;;;5150145;27;20270;-65
2023/06/27 04:12:06;;;;;;;5.50;2.30;;;18.10;99.90;;;;;;5149952;27;20452;-64
2023/06/27 04:14:32;;;;;;;6.73;3.20;;;18.00;99.90;;;;;;5149831;27;20421;-64
2023/06/27 04:16:57;;;;;;;6.50;2.30;;;17.90;99.90;;;;;;5149893;27;20452;-64
2023/06/27 04:19:23;;;;;;;5.40;2.60;;;17.70;99.90;;;;;;5148499;27;20242;-64
2023/06/27 04:21:49;;;;;;;4.37;1.90;;;17.60;99.90;;;;;;5148951;27;20182;-64
2023/06/27 04:24:14;;;;;;;4.27;2.33;;;17.60;99.90;;;;;;5149022;27;20179;-64
2023/06/27 04:26:42;;;;;;;12.53;2.40;;;17.70;99.90;;;;;;5149316;27;20746;-64
2023/06/27 04:29:08;;;;;;;4.97;2.37;;;17.80;99.90;;;;;;5153352;27;20203;-64
2023/06/27 04:31:34;;;;;;;10.13;4.00;;;17.90;99.90;;;;;;5153353;27;20469;-65
2023/06/27 04:33:59;;;;;;;14.67;6.77;;;17.90;99.90;;;;;;5153164;27;20448;-65
2023/06/27 04:36:26;;;;;;;13.97;6.70;;;18.00;99.90;;;;;;5134582;27;20180;-67
2023/06/27 04:38:52;;;;;;;17.80;7.63;;;18.10;99.90;;;;;;5153051;27;20295;-68
2023/06/27 04:41:17;;;;;;;11.37;5.20;;;18.00;99.90;;;;;;5153048;27;20500;-68
2023/06/27 04:43:43;;;;;;;7.23;3.00;;;18.00;99.90;;;;;;5153058;27;20185;-67
2023/06/27 04:46:09;;;;;;;5.13;2.30;;;18.00;99.90;;;;;;5152898;27;20720;-67
2023/06/27 04:48:35;;;;;;;3.07;1.60;;;18.00;99.90;;;;;;5152644;27;20180;-68
2023/06/27 04:51:00;;;;;;;4.37;2.30;;;17.90;99.90;;;;;;5152204;27;20204;-68
2023/06/27 04:53:26;;;;;;;11.50;2.90;;;17.90;99.90;;;;;;5152319;27;20460;-68
2023/06/27 04:55:52;;;;;;;3.27;2.07;;;18.00;99.90;;;;;;5133718;27;20196;-68
2023/06/27 04:58:19;;;;;;;3.00;2.17;;;18.00;99.90;;;;;;5152606;27;20202;-68
2023/06/27 05:00:47;;;;;;;2.83;1.90;;;18.00;99.90;;;;;;5152320;27;20707;-68
2023/06/27 05:03:13;;;;;;;4.87;2.37;;;17.90;99.90;;;;;;5152800;27;20455;-67
2023/06/27 05:05:39;;;;;;;3.80;1.90;;;17.70;99.90;;;;;;5152800;27;20407;-68
2023/06/27 05:08:05;;;;;;;8.27;2.60;;;17.60;99.90;;;;;;5152539;27;20415;-68
2023/06/27 05:10:30;;;;;;;12.60;2.80;;;17.70;99.90;;;;;;5133933;27;20684;-68
2023/06/27 05:12:57;;;;;;;12.90;3.03;;;17.90;99.90;;;;;;5152629;27;20614;-68
2023/06/27 05:15:23;;;;;;;9.00;2.60;;;17.90;99.90;;;;;;5152362;27;20436;-68
2023/06/27 05:18:14;;;;;;;5.93;2.90;;;18.10;99.90;;;;;;5133825;27;20462;-68
2023/06/27 05:20:40;;;;;;;6.63;2.53;;;18.10;99.90;;;;;;5134699;27;20229;-67
2023/06/27 05:23:06;;;;;;;3.17;2.10;;;18.20;99.90;;;;;;5152521;27;20551;-67
2023/06/27 05:25:32;;;;;;;3.43;2.10;;;18.30;99.90;;;;;;5133825;27;20881;-67
2023/06/27 05:27:58;;;;;;;8.70;2.77;;;18.30;99.90;;;;;;5152379;27;20802;-67
2023/06/27 05:30:24;;;;;;;4.20;2.03;;;18.30;99.90;;;;;;5152282;27;20899;-67
2023/06/27 05:32:50;;;;;;;5.03;2.83;;;18.30;99.90;;;;;;5152118;27;20817;-68
2023/06/27 05:35:16;;;;;;;5.87;2.00;;;18.30;99.90;;;;;;5151737;27;20417;-68
2023/06/27 05:37:41;;;;;;;8.17;2.20;;;18.20;99.90;;;;;;5133026;27;20219;-68
2023/06/27 05:40:08;;;;;;;8.00;2.83;;;18.30;99.90;;;;;;5152088;27;20238;-68
2023/06/27 05:42:35;;;;;;;7.73;2.33;;;18.30;99.90;;;;;;5151943;27;20280;-67
2023/06/27 05:45:00;;;;;;;5.67;2.50;;;18.40;99.90;;;;;;5133500;27;20417;-68
2023/06/27 05:47:26;;;;;;;8.87;2.97;;;18.40;99.90;;;;;;5151656;27;20465;-67
2023/06/27 05:49:52;;;;;;;7.30;2.50;;;18.50;99.90;;;;;;5151507;27;20270;-68
2023/06/27 05:52:18;;;;;;;6.93;2.70;;;18.50;99.90;;;;;;5133044;27;20260;-68
2023/06/27 05:54:43;;;;;;;4.33;2.10;;;18.50;99.90;;;;;;5151385;27;20954;-68
2023/06/27 05:57:09;;;;;;;6.60;2.97;;;18.60;99.90;;;;;;5151299;27;20189;-68
2023/06/27 05:59:35;;;;;;;7.10;2.43;;;18.70;99.90;;;;;;5151020;27;20208;-68
2023/06/27 06:02:01;;;;;;;6.27;2.50;;;18.80;99.90;;;;;;5150845;27;20422;-68
2023/06/27 06:04:26;;;;;;;7.27;2.20;;;18.80;99.90;;;;;;5150837;27;20183;-68
2023/06/27 06:06:52;;;;;;;5.23;1.93;;;18.90;99.90;;;;;;5150821;27;20603;-68
2023/06/27 06:09:18;;;;;;;8.13;1.93;;;19.00;99.90;;;;;;5131788;27;20209;-68
2023/06/27 06:11:44;;;;;;;6.50;2.67;;;19.10;99.90;;;;;;5150840;27;20204;-68
2023/06/27 06:14:10;;;;;;;3.90;2.57;;;19.20;99.90;;;;;;5150652;27;20180;-68
2023/06/27 06:16:35;;;;;;;7.83;2.50;;;19.20;99.90;;;;;;5150593;27;20204;-68
2023/06/27 06:19:02;;;;;;;7.93;2.27;;;19.40;99.90;;;;;;5150211;27;20467;-68
2023/06/27 06:21:28;;;;;;;4.83;1.90;;;19.50;97.20;;;;;;5150938;27;20421;-68
2023/06/27 06:23:53;;;;;;;4.97;2.00;;;19.50;98.20;;;;;;5150291;27;20788;-68
2023/06/27 06:26:19;;;;;;;8.57;2.90;;;19.60;97.70;;;;;;5150248;27;20248;-68
2023/06/27 06:28:46;;;;;;;4.97;2.17;;;19.60;95.30;;;;;;5132114;27;20202;-67
2023/06/27 06:31:16;;;;;;;6.40;2.10;;;19.70;96.50;;;;;;5150857;27;20429;-67
2023/06/27 06:33:42;;;;;;;5.03;2.23;;;19.80;95.20;;;;;;5132507;27;20514;-68
2023/06/27 06:36:07;;;;;;;5.00;2.50;;;19.90;96.80;;;;;;5150440;27;20443;-67
2023/06/27 06:38:33;;;;;;;4.67;2.57;;;19.90;96.90;;;;;;5151044;27;20978;-67
2023/06/27 06:40:59;;;;;;;3.37;1.90;;;20.00;96.70;;;;;;5151083;27;20204;-67
2023/06/27 06:43:25;;;;;;;8.83;2.40;;;20.00;95.00;;;;;;5151164;27;20602;-67
2023/06/27 06:45:54;;;;;;;13.10;2.27;;;20.10;93.80;;;;;;5150944;27;20183;-67
2023/06/27 06:48:20;;;;;;;8.23;2.53;;;20.10;95.20;;;;;;5131950;27;20432;-67
2023/06/27 06:50:46;;;;;;;6.77;2.40;;;20.00;93.90;;;;;;5150079;27;20512;-67
2023/06/27 06:53:12;;;;;;;7.20;2.13;;;20.00;91.80;;;;;;5150919;27;20717;-68
2023/06/27 06:55:38;;;;;;;5.33;2.00;;;20.00;92.90;;;;;;5132351;27;20508;-67
2023/06/27 06:58:04;;;;;;;14.03;2.50;;;20.10;92.20;;;;;;5150826;27;20632;-68
2023/06/27 07:00:30;;;;;;;5.37;2.00;;;20.20;93.40;;;;;;5150447;27;20286;-67
2023/06/27 07:02:55;;;;;;;5.47;2.20;;;20.40;92.80;;;;;;5150926;27;20426;-68
2023/06/27 07:05:21;;;;;;;7.73;2.00;;;20.60;92.30;;;;;;5150982;27;20482;-67
2023/06/27 07:07:47;;;;;;;5.00;2.57;;;20.70;91.30;;;;;;5150979;27;20192;-68
2023/06/27 07:10:12;;;;;;;4.40;2.40;;;20.70;90.40;;;;;;5132017;27;20224;-68
2023/06/27 07:12:38;;;;;;;15.00;2.23;;;20.80;91.20;;;;;;5150655;27;20605;-67
2023/06/27 07:15:04;;;;;;;7.50;2.27;;;20.90;90.80;;;;;;5150478;27;20219;-67
2023/06/27 07:17:30;;;;;;;10.23;3.00;;;21.00;91.00;;;;;;5150293;27;20208;-68
2023/06/27 07:19:56;;;;;;;5.47;2.13;;;20.90;89.60;;;;;;5150346;27;20498;-67
2023/06/27 07:22:21;;;;;;;4.33;2.60;;;20.90;90.70;;;;;;5150234;27;20180;-67
2023/06/27 07:24:47;;;;;;;3.50;2.03;;;20.90;91.30;;;;;;5150155;27;20416;-67
2023/06/27 07:27:14;;;;;;;4.17;2.13;;;21.00;90.90;;;;;;5150197;27;20661;-66
2023/06/27 07:29:39;;;;;;;8.60;2.73;;;21.00;90.50;;;;;;5150148;27;20196;-68
2023/06/27 07:32:05;;;;;;;6.80;2.57;;;21.00;89.60;;;;;;5150157;27;21296;-68
2023/06/27 07:34:33;;;;;;;12.80;2.50;;;21.10;90.00;;;;;;5150277;27;20180;-68
2023/06/27 07:36:59;;;;;;;4.77;2.53;;;21.30;90.50;;;;;;5131460;27;20425;-68
2023/06/27 07:39:24;;;;;;;5.20;2.07;;;21.30;88.70;;;;;;5149687;27;20817;-68
2023/06/27 07:41:50;;;;;;;11.67;2.37;;;21.40;90.10;;;;;;5149857;27;20183;-67
2023/06/27 07:44:16;;;;;;;12.10;2.27;;;21.30;86.10;;;;;;5149763;27;20710;-68
2023/06/27 07:46:41;;;;;;;5.97;1.93;;;21.30;88.30;;;;;;5131277;27;20181;-68
2023/06/27 07:49:08;;;;;;;6.33;2.23;;;21.50;89.40;;;;;;5149472;27;20208;-68
2023/06/27 07:51:33;;;;;;;3.70;2.07;;;21.50;88.50;;;;;;5131385;27;20185;-68
2023/06/27 07:54:00;;;;;;;7.60;2.27;;;21.60;87.60;;;;;;5149624;27;20926;-68
2023/06/27 07:56:26;;;;;;;7.57;2.50;;;21.50;83.80;;;;;;5149584;27;20185;-67
2023/06/27 07:58:52;;;;;;;4.03;2.30;;;21.80;87.70;;;;;;5130864;27;20503;-68
2023/06/27 08:01:17;;;;;;;17.43;2.17;;;21.90;87.10;;;;;;5149485;27;20184;-68
2023/06/27 08:03:43;;;;;;;10.80;2.37;;;22.10;83.70;;;;;;5149515;27;20907;-68
2023/06/27 08:06:09;;;;;;;4.03;2.30;;;22.20;83.30;;;;;;5130920;27;20180;-68
2023/06/27 08:08:36;;;;;;;13.43;2.20;;;22.10;83.80;;;;;;5149597;27;20797;-67
2023/06/27 08:11:02;;;;;;;7.60;1.87;;;22.00;84.40;;;;;;5149495;27;20226;-68
2023/06/27 08:13:28;;;;;;;3.63;1.50;;;22.20;84.50;;;;;;5149629;27;20464;-68
2023/06/27 08:15:53;;;;;;;26.50;2.73;;;22.20;83.90;;;;;;5130828;27;20454;-68
2023/06/27 08:18:19;;;;;;;8.10;1.93;;;22.30;86.90;;;;;;5149171;27;20222;-66
2023/06/27 08:20:45;;;;;;;4.77;2.17;;;22.40;85.20;;;;;;5149481;27;20563;-67
2023/06/27 08:23:10;;;;;;;6.20;1.90;;;22.60;82.70;;;;;;5149259;27;20182;-68
2023/06/27 08:25:36;;;;;;;2.50;1.90;;;22.40;80.80;;;;;;5149420;27;21008;-67
2023/06/27 08:28:01;;;;;;;4.87;2.37;;;22.50;81.30;;;;;;5148938;27;20198;-67
2023/06/27 08:30:28;;;;;;;2.80;1.50;;;22.60;80.00;;;;;;5149235;27;20206;-68
2023/06/27 08:32:56;;;;;;;4.70;2.37;;;22.80;82.00;;;;;;5149257;27;20195;-67
2023/06/27 08:35:22;;;;;;;11.93;2.20;;;22.90;81.80;;;;;;5149004;27;20451;-68
2023/06/27 08:37:48;;;;;;;5.13;1.70;;;23.20;80.10;;;;;;5130418;27;20467;-67
2023/06/27 08:40:24;;;;;;;15.33;2.43;;;23.20;80.70;;;;;;5149416;27;20447;-69
2023/06/27 08:42:50;;;;;;;4.03;1.80;;;23.00;80.10;;;;;;5149293;27;20652;-66
2023/06/27 08:45:16;;;;;;;3.17;2.10;;;22.80;80.50;;;;;;5130675;27;20499;-68
2023/06/27 08:47:44;;;;;;;8.73;2.77;;;22.80;79.40;;;;;;5149065;27;20471;-68
2023/06/27 08:50:13;;;;;;;2.87;1.80;;;23.00;76.90;;;;;;5149530;27;20681;-68
2023/06/27 08:52:56;;;;;;;7.13;2.60;;;22.90;77.50;;;;;;5149233;27;20422;-68
2023/06/27 08:55:32;;;;;;;4.63;2.20;;;23.30;77.70;;;;;;5148853;27;20416;-67
2023/06/27 08:58:02;;;;;;;3.23;1.93;;;23.70;77.00;;;;;;5148377;27;20824;-67
2023/06/27 09:00:30;;;;;;;8.73;2.47;;;23.90;76.70;;;;;;5148960;27;20436;-68
2023/06/27 09:02:56;;;;;;;9.73;2.70;;;24.10;77.30;;;;;;5148961;27;20424;-67
2023/06/27 09:05:22;;;;;;;2.93;2.10;;;24.30;77.60;;;;;;5148813;27;20419;-67
2023/06/27 09:07:49;;;;;;;8.17;2.50;;;24.60;74.10;;;;;;5129608;27;20502;-67
2023/06/27 09:10:15;;;;;;;3.80;2.20;;;24.70;74.70;;;;;;5148263;27;20442;-67
2023/06/27 09:12:43;;;;;;;6.67;2.13;;;24.70;73.70;;;;;;5148614;27;20776;-67
2023/06/27 09:15:10;;;;;;;4.27;2.43;;;25.00;75.40;;;;;;5133432;27;20194;-67
2023/06/27 09:17:37;;;;;;;9.07;2.70;;;25.00;77.30;;;;;;5151811;27;20468;-67
2023/06/27 09:20:05;;;;;;;6.53;2.70;;;24.40;72.30;;;;;;5151940;27;20436;-67
2023/06/27 09:22:31;;;;;;;7.50;2.53;;;24.30;76.40;;;;;;5151818;27;20435;-66
2023/06/27 09:25:14;;;;;;;3.30;1.77;;;24.20;78.20;;;;;;5151637;27;20511;-67
2023/06/27 09:27:40;;;;;;;5.90;2.27;;;24.30;76.20;;;;;;5151642;27;20452;-67
2023/06/27 09:30:07;;;;;;;5.23;2.00;;;24.10;74.60;;;;;;5133010;27;20445;-66
2023/06/27 09:32:50;;;;;;;6.10;2.87;;;24.00;76.10;;;;;;5151745;27;20447;-67
2023/06/27 09:35:16;;;;;;;3.90;2.00;;;24.00;77.20;;;;;;5151835;27;20437;-68
2023/06/27 09:37:42;;;;;;;8.17;2.60;;;23.90;76.80;;;;;;5151593;27;20465;-68
2023/06/27 09:40:24;;;;;;;2.50;1.73;;;23.90;75.90;;;;;;5152040;27;20248;-68
2023/06/27 09:42:52;;;;;;;6.50;2.30;;;23.90;75.90;;;;;;5151654;27;20183;-68
2023/06/27 09:45:18;;;;;;;4.97;2.50;;;23.80;76.70;;;;;;5133349;27;20442;-68
2023/06/27 09:47:46;;;;;;;4.23;2.53;;;23.70;74.30;;;;;;5151457;27;20908;-68
2023/06/27 09:50:12;;;;;;;5.10;2.23;;;23.60;71.90;;;;;;5151511;27;20440;-67
2023/06/27 09:52:37;;;;;;;7.33;2.80;;;23.80;73.90;;;;;;5151655;27;20428;-68
2023/06/27 09:55:03;;;;;;;6.17;2.80;;;23.80;73.40;;;;;;5151339;27;20269;-68
2023/06/27 09:57:32;;;;;;;5.33;1.87;;;23.80;75.40;;;;;;5133034;27;20676;-68
2023/06/27 09:59:58;;;;;;;9.00;2.43;;;23.80;75.30;;;;;;5132609;27;20449;-67
2023/06/27 10:02:33;;;;;;;5.40;2.23;;;24.00;75.90;;;;;;5151302;27;20417;-69
2023/06/27 10:04:58;;;;;;;8.43;2.00;;;23.80;75.20;;;;;;5132701;27;21015;-68
2023/06/27 10:07:24;;;;;;;3.60;2.27;;;23.80;72.70;;;;;;5150980;27;20417;-68
2023/06/27 10:09:50;;;;;;;5.33;2.20;;;23.70;74.40;;;;;;5132230;27;20280;-69
2023/06/27 10:12:16;;;;;;;4.10;2.00;;;23.70;75.00;;;;;;5150991;27;20534;-68
2023/06/27 10:14:43;;;;;;;3.47;1.80;;;23.80;76.20;;;;;;5151106;27;20504;-67
2023/06/27 10:17:10;;;;;;;5.57;2.20;;;23.90;75.10;;;;;;5150887;27;20622;-68
2023/06/27 10:19:37;;;;;;;14.83;2.60;;;24.00;76.00;;;;;;5151014;27;20451;-68
2023/06/27 10:22:09;;;;;;;7.10;2.60;;;24.10;77.30;;;;;;5150863;27;20508;-68
2023/06/27 10:24:38;;;;;;;5.37;2.70;;;24.10;75.20;;;;;;5149823;27;20409;-67
2023/06/27 10:27:07;;;;;;;6.80;2.50;;;24.10;73.40;;;;;;5150771;27;20569;-68
2023/06/27 10:29:32;;;;;;;6.90;2.97;;;24.00;76.40;;;;;;5132469;27;21091;-68
2023/06/27 10:31:59;;;;;;;4.60;1.80;;;24.20;75.40;;;;;;5151080;27;20424;-68
2023/06/27 10:34:25;;;;;;;10.40;2.90;;;24.30;75.10;;;;;;5150776;27;20952;-68
2023/06/27 10:37:02;;;;;;;4.60;2.00;;;24.30;73.60;;;;;;5150520;27;20406;-68
2023/06/27 10:39:29;;;;;;;4.03;2.40;;;24.40;74.00;;;;;;5131524;27;20211;-68
2023/06/27 10:42:02;;;;;;;6.90;2.90;;;24.50;72.50;;;;;;5131623;27;20494;-68
2023/06/27 10:44:28;;;;;;;5.20;2.20;;;24.70;73.20;;;;;;5151239;27;20406;-67
2023/06/27 10:47:15;;;;;;;6.97;2.50;;;25.00;71.00;;;;;;5150266;27;20429;-67
2023/06/27 10:49:45;;;;;;;4.23;2.43;;;25.00;72.80;;;;;;5150140;27;20435;-68
2023/06/27 10:52:20;;;;;;;3.03;2.43;;;25.10;71.20;;;;;;5150417;27;21061;-68
2023/06/27 10:54:47;;;;;;;12.50;2.77;;;24.70;67.50;;;;;;5150278;27;20712;-68
2023/06/27 10:57:16;;;;;;;4.00;1.93;;;24.50;69.20;;;;;;5150132;27;20409;-68
2023/06/27 10:59:45;;;;;;;6.23;2.30;;;24.70;72.10;;;;;;5130889;27;20438;-68
2023/06/27 11:02:12;;;;;;;7.00;2.43;;;24.90;70.20;;;;;;5150033;27;20804;-68
2023/06/27 11:04:43;;;;;;;7.73;2.50;;;24.70;69.90;;;;;;5149692;27;20927;-68
2023/06/27 11:07:17;;;;;;;4.80;2.50;;;24.60;69.10;;;;;;5149796;27;20410;-68
2023/06/27 11:09:51;;;;;;;2.73;2.07;;;24.70;69.40;;;;;;5150075;27;20988;-68
2023/06/27 11:12:17;;;;;;;5.87;2.10;;;24.60;70.80;;;;;;5150387;27;20406;-68
2023/06/27 11:14:48;;;;;;;11.33;3.10;;;24.30;69.80;;;;;;5131725;27;20416;-68
2023/06/27 11:17:17;;;;;;;9.00;2.40;;;24.30;72.00;;;;;;5150377;27;20429;-67
2023/06/27 11:19:43;;;;;;;7.73;2.10;;;24.20;73.50;;;;;;5150255;27;20915;-68
2023/06/27 11:22:09;;;;;;;8.00;2.40;;;24.30;72.90;;;;;;5151206;27;20771;-68
2023/06/27 11:24:35;;;;;;;6.03;2.10;;;24.40;73.50;;;;;;5150837;27;20848;-68
2023/06/27 11:27:02;;;;;;;8.20;2.67;;;24.60;72.90;;;;;;5150409;27;20476;-68
2023/06/27 11:29:28;;;;;;;5.80;2.37;;;24.70;72.40;;;;;;5150147;27;20260;-68
2023/06/27 11:31:55;;;;;;;6.20;2.50;;;24.70;71.60;;;;;;5150145;27;20418;-68
2023/06/27 11:34:21;;;;;;;4.37;2.30;;;24.70;70.50;;;;;;5149936;27;20688;-69
2023/06/27 11:36:47;;;;;;;3.63;1.90;;;24.80;71.00;;;;;;5149618;27;20517;-69
2023/06/27 11:39:13;;;;;;;3.67;2.20;;;24.70;72.10;;;;;;5149829;27;20494;-68
2023/06/27 11:41:40;;;;;;;5.20;2.50;;;24.60;71.40;;;;;;5149955;27;20416;-69
2023/06/27 11:44:13;;;;;;;6.10;2.60;;;24.50;72.60;;;;;;5149704;27;20410;-68
2023/06/27 11:46:48;;;;;;;7.20;2.77;;;24.30;72.00;;;;;;5149793;27;20504;-68
2023/06/27 11:49:15;;;;;;;8.67;2.67;;;24.30;72.90;;;;;;5149446;27;21044;-67
2023/06/27 11:51:41;;;;;;;4.57;2.20;;;24.20;74.00;;;;;;5149334;27;20413;-67
2023/06/27 11:54:08;;;;;;;3.73;2.33;;;24.30;72.30;;;;;;5149293;27;20444;-69
2023/06/27 11:56:37;;;;;;;5.63;2.40;;;24.30;72.60;;;;;;5149036;27;20537;-67
2023/06/27 11:59:04;;;;;;;7.33;2.60;;;24.40;71.90;;;;;;5148756;27;20489;-67
2023/06/27 12:01:33;;;;;;;5.50;2.17;;;24.40;70.00;;;;;;5148876;27;20420;-67
2023/06/27 12:03:59;;;;;;;5.07;2.00;;;24.40;71.40;;;;;;5148661;27;20421;-67
2023/06/27 12:06:29;;;;;;;8.67;2.40;;;24.50;72.00;;;;;;5148910;27;20429;-69
2023/06/27 12:08:56;;;;;;;3.70;2.20;;;24.80;72.60;;;;;;5148830;27;20452;-67
2023/06/27 12:11:26;;;;;;;5.47;2.40;;;25.10;72.90;;;;;;5130048;27;20463;-68
2023/06/27 12:13:52;;;;;;;11.00;2.17;;;25.40;71.30;;;;;;5130472;27;21124;-66
2023/06/27 12:16:29;;;;;;;10.10;2.57;;;25.50;69.90;;;;;;5130546;27;20471;-69
2023/06/27 12:19:07;;;;;;;6.83;2.10;;;25.70;71.30;;;;;;5148756;27;20465;-69
2023/06/27 12:21:33;;;;;;;6.83;2.13;;;26.00;70.40;;;;;;5148977;27;20535;-68
2023/06/27 12:23:58;;;;;;;7.57;2.10;;;26.20;69.50;;;;;;5148688;27;21309;-67
2023/06/27 12:26:24;;;;;;;3.43;2.40;;;26.20;67.50;;;;;;5130055;27;20195;-68
2023/06/27 12:28:59;;;;;;;5.70;2.40;;;26.30;69.70;;;;;;5148495;27;20180;-68
2023/06/27 12:31:25;;;;;;;6.13;2.40;;;26.10;67.30;;;;;;5148773;27;20180;-67
2023/06/27 12:33:52;;;;;;;5.80;2.73;;;25.90;66.40;;;;;;5148734;27;20413;-67
2023/06/27 12:36:23;;;;;;;6.50;2.47;;;25.90;68.40;;;;;;5129896;27;20414;-67
2023/06/27 12:38:50;;;;;;;6.10;2.80;;;26.00;68.20;;;;;;5148330;27;20468;-67
2023/06/27 12:41:19;;;;;;;6.83;2.40;;;26.20;68.00;;;;;;5148671;27;21258;-67
2023/06/27 12:43:45;;;;;;;4.70;2.30;;;26.50;66.70;;;;;;5148413;27;20464;-68
2023/06/27 12:46:12;;;;;;;8.43;2.37;;;26.60;67.80;;;;;;5148460;27;20938;-68